Time;durP1;ratioP1;P1;durP2;ratioP2;P2;SDS_P1;SDS_P2;PMS_P1;PMS_P2;Temp;Humidity;BMP_temperature;BMP_pressure;BME280_temperature;BME280_humidity;BME280_pressure;Samples;Min_cycle;Max_cycle;Signal;HPM_P1;HPM_P2
2021/12/15 00:00:01;;;;;;;362.90;100.27;;;;;;;3.61;87.92;100245.03;339597;29;1880;-71
2021/12/15 00:00:13;;;;;;;363.67;100.30;;;;;;;3.59;87.59;100239.00;340333;29;2010;-72
2021/12/15 00:00:23;;;;;;;365.95;99.95;;;;;;;3.59;87.45;100233.81;341169;29;906;-72
2021/12/15 00:00:34;;;;;;;366.67;100.70;;;;;;;3.60;87.77;100243.31;342689;28;1604;-72
2021/12/15 00:00:45;;;;;;;366.58;102.57;;;;;;;3.60;87.88;100242.44;341836;28;1946;-72
2021/12/15 00:00:55;;;;;;;364.63;103.30;;;;;;;3.60;87.90;100238.13;338848;29;1735;-72
2021/12/15 00:01:06;;;;;;;365.45;104.15;;;;;;;3.58;87.82;100234.69;339667;29;1598;-72
2021/12/15 00:01:17;;;;;;;366.40;102.07;;;;;;;3.59;88.02;100238.13;343515;28;2116;-72
2021/12/15 00:01:27;;;;;;;367.67;102.53;;;;;;;3.56;87.62;100239.00;343205;28;2242;-72
2021/12/15 00:01:38;;;;;;;368.03;102.63;;;;;;;3.55;87.46;100234.69;339925;29;896;-72
2021/12/15 00:01:53;;;;;;;365.30;100.38;;;;;;;3.55;87.78;100237.28;338529;29;1281;-72
2021/12/15 00:02:06;;;;;;;363.45;98.60;;;;;;;3.58;87.65;100241.59;338435;29;991;-71
2021/12/15 00:02:20;;;;;;;366.63;99.82;;;;;;;3.58;87.70;100236.41;339604;29;2063;-71
2021/12/15 00:02:30;;;;;;;365.58;95.95;;;;;;;3.59;87.65;100239.00;339339;29;984;-71
2021/12/15 00:02:44;;;;;;;365.43;97.53;;;;;;;3.58;87.89;100232.09;341939;28;1785;-71
2021/12/15 00:02:54;;;;;;;367.08;101.82;;;;;;;3.60;87.67;100243.31;339872;29;1281;-71
2021/12/15 00:03:05;;;;;;;367.20;104.93;;;;;;;3.60;87.73;100234.69;341134;29;1360;-71
2021/12/15 00:03:16;;;;;;;367.00;102.47;;;;;;;3.61;87.79;100239.84;341117;29;2011;-71
2021/12/15 00:03:26;;;;;;;367.92;103.07;;;;;;;3.60;87.29;100240.72;343732;28;1356;-71
2021/12/15 00:03:37;;;;;;;365.93;100.13;;;;;;;3.61;87.40;100237.28;342341;28;1919;-73
2021/12/15 00:03:47;;;;;;;365.00;100.82;;;;;;;3.59;87.54;100239.00;341386;28;2559;-72
2021/12/15 00:03:58;;;;;;;364.37;99.40;;;;;;;3.62;87.71;100243.31;342447;28;1983;-72
2021/12/15 00:04:09;;;;;;;367.05;102.43;;;;;;;3.59;87.83;100241.59;341178;29;1236;-72
2021/12/15 00:04:19;;;;;;;368.75;103.95;;;;;;;3.59;87.60;100244.16;341260;29;842;-72
2021/12/15 00:04:29;;;;;;;367.93;102.50;;;;;;;3.59;88.05;100239.00;341229;28;1735;-73
2021/12/15 00:04:42;;;;;;;368.10;102.57;;;;;;;3.59;87.76;100239.00;340195;29;974;-72
2021/12/15 00:04:53;;;;;;;367.10;103.88;;;;;;;3.58;87.67;100242.44;339829;29;862;-72
2021/12/15 00:05:05;;;;;;;366.88;104.25;;;;;;;3.58;87.79;100241.59;343610;28;1742;-72
2021/12/15 00:05:21;;;;;;;367.17;103.70;;;;;;;3.57;87.74;100242.44;344153;28;2024;-71
2021/12/15 00:05:31;;;;;;;367.35;103.50;;;;;;;3.55;87.51;100247.63;343812;28;2102;-71
2021/12/15 00:05:42;;;;;;;366.23;102.47;;;;;;;3.55;87.60;100245.03;344246;28;1175;-71
2021/12/15 00:05:53;;;;;;;367.15;103.68;;;;;;;3.55;87.46;100239.88;344042;28;1351;-71
2021/12/15 00:06:10;;;;;;;368.00;106.03;;;;;;;3.55;87.85;100241.59;342378;28;1867;-71
2021/12/15 00:06:21;;;;;;;368.67;105.13;;;;;;;3.56;87.72;100243.31;342535;28;996;-71
2021/12/15 00:06:31;;;;;;;369.30;103.72;;;;;;;3.57;87.88;100248.50;341239;28;1012;-71
2021/12/15 00:06:42;;;;;;;368.38;103.63;;;;;;;3.58;87.88;100239.84;339744;29;2084;-71
2021/12/15 00:06:52;;;;;;;368.27;103.30;;;;;;;3.59;87.77;100244.16;339923;29;1183;-71
2021/12/15 00:07:03;;;;;;;368.45;103.45;;;;;;;3.58;87.41;100247.63;339780;29;1015;-71
2021/12/15 00:07:13;;;;;;;369.27;103.70;;;;;;;3.59;87.61;100244.16;343011;28;1577;-71
2021/12/15 00:07:25;;;;;;;370.38;104.22;;;;;;;3.60;87.34;100239.84;342592;28;1116;-71
2021/12/15 00:07:35;;;;;;;369.85;104.25;;;;;;;3.60;87.77;100245.03;342306;28;1256;-73
2021/12/15 00:07:46;;;;;;;367.95;103.05;;;;;;;3.60;87.64;100245.91;342672;28;1765;-73
2021/12/15 00:07:58;;;;;;;365.17;100.75;;;;;;;3.59;87.44;100248.47;343783;28;1263;-73
2021/12/15 00:08:11;;;;;;;364.88;101.28;;;;;;;3.58;87.50;100242.44;342524;28;1413;-72
2021/12/15 00:08:21;;;;;;;365.48;100.13;;;;;;;3.58;87.62;100247.63;341236;29;1011;-72
2021/12/15 00:08:31;;;;;;;367.27;101.73;;;;;;;3.59;87.51;100245.91;337665;29;2418;-72
2021/12/15 00:08:42;;;;;;;369.23;105.03;;;;;;;3.57;87.79;100245.91;338722;29;2040;-72
2021/12/15 00:08:54;;;;;;;369.83;107.00;;;;;;;3.56;87.63;100240.72;341235;29;886;-72
2021/12/15 00:09:07;;;;;;;367.64;105.46;;;;;;;3.55;87.44;100245.03;342932;28;1008;-72
2021/12/15 00:09:17;;;;;;;365.55;102.40;;;;;;;3.55;87.90;100247.63;343944;28;2050;-72
2021/12/15 00:09:29;;;;;;;366.15;101.45;;;;;;;3.55;87.58;100247.63;341725;28;1796;-72
2021/12/15 00:09:39;;;;;;;367.26;103.82;;;;;;;3.55;87.29;100241.59;340818;29;1316;-72
2021/12/15 00:09:50;;;;;;;367.53;105.60;;;;;;;3.56;87.83;100245.91;343832;28;1138;-72
2021/12/15 00:10:00;;;;;;;366.88;105.38;;;;;;;3.57;87.61;100248.50;342512;28;2297;-72
2021/12/15 00:10:11;;;;;;;367.03;103.70;;;;;;;3.58;87.71;100252.81;342487;28;2027;-72
2021/12/15 00:10:23;;;;;;;364.98;99.80;;;;;;;3.57;87.44;100251.06;342523;28;860;-72
2021/12/15 00:10:33;;;;;;;365.52;100.72;;;;;;;3.58;87.72;100247.63;340871;29;1500;-72
2021/12/15 00:10:44;;;;;;;366.77;101.85;;;;;;;3.59;87.52;100243.31;341443;28;838;-72
2021/12/15 00:10:55;;;;;;;368.07;103.40;;;;;;;3.58;87.54;100247.63;343932;28;933;-72
2021/12/15 00:11:05;;;;;;;366.43;102.10;;;;;;;3.61;87.32;100251.94;341007;28;1810;-72
2021/12/15 00:11:16;;;;;;;365.73;100.68;;;;;;;3.59;88.10;100246.75;341035;28;1693;-72
2021/12/15 00:11:32;;;;;;;364.97;99.57;;;;;;;3.59;87.51;100249.34;342775;28;2039;-72
2021/12/15 00:11:44;;;;;;;366.25;102.47;;;;;;;3.59;87.63;100249.34;342370;28;2099;-72
2021/12/15 00:11:55;;;;;;;366.27;102.70;;;;;;;3.58;87.23;100250.22;341180;29;953;-72
2021/12/15 00:12:06;;;;;;;365.13;101.18;;;;;;;3.55;87.45;100245.03;339856;29;1364;-72
2021/12/15 00:12:17;;;;;;;364.15;99.93;;;;;;;3.58;87.49;100257.13;341183;28;2060;-72
2021/12/15 00:12:27;;;;;;;364.73;99.43;;;;;;;3.57;87.42;100248.50;343673;28;1437;-72
2021/12/15 00:12:38;;;;;;;365.00;100.00;;;;;;;3.57;87.57;100248.50;343813;28;1352;-72
2021/12/15 00:12:48;;;;;;;366.75;102.68;;;;;;;3.57;87.90;100251.06;342854;28;2155;-72
2021/12/15 00:12:59;;;;;;;366.70;103.97;;;;;;;3.57;87.84;100250.22;342349;28;1424;-72
2021/12/15 00:13:12;;;;;;;366.38;103.28;;;;;;;3.57;87.40;100252.81;342386;28;2030;-72
2021/12/15 00:13:23;;;;;;;364.73;102.32;;;;;;;3.57;87.59;100251.06;341864;28;1969;-72
2021/12/15 00:13:37;;;;;;;363.92;102.38;;;;;;;3.58;87.50;100245.03;341035;28;2451;-72
2021/12/15 00:13:47;;;;;;;364.88;102.60;;;;;;;3.60;87.34;100256.25;341116;28;1730;-72
2021/12/15 00:13:58;;;;;;;365.55;102.78;;;;;;;3.59;87.44;100249.34;341629;28;1341;-72
2021/12/15 00:14:18;;;;;;;365.77;102.17;;;;;;;3.59;87.55;100254.53;339616;29;1229;-72
2021/12/15 00:14:29;;;;;;;366.58;100.78;;;;;;;3.58;87.77;100246.75;338402;29;1645;-72
2021/12/15 00:14:40;;;;;;;367.13;100.70;;;;;;;3.59;87.42;100249.34;343520;28;956;-72
2021/12/15 00:14:51;;;;;;;366.77;101.30;;;;;;;3.59;87.66;100256.25;339656;29;2537;-72
2021/12/15 00:15:01;;;;;;;367.45;102.22;;;;;;;3.57;87.91;100251.06;340941;29;1461;-72
2021/12/15 00:15:12;;;;;;;368.07;104.30;;;;;;;3.55;87.28;100255.41;339806;29;1016;-72
2021/12/15 00:15:23;;;;;;;367.65;102.47;;;;;;;3.55;87.64;100252.81;342387;28;939;-72
2021/12/15 00:15:33;;;;;;;368.80;103.78;;;;;;;3.59;87.64;100258.84;342114;28;1519;-73
2021/12/15 00:15:44;;;;;;;370.07;103.20;;;;;;;3.59;87.44;100253.66;342277;28;2034;-72
2021/12/15 00:15:55;;;;;;;370.98;103.20;;;;;;;3.58;87.10;100257.97;342394;28;1271;-72
2021/12/15 00:16:06;;;;;;;370.10;100.33;;;;;;;3.59;87.99;100257.13;341145;28;1522;-72
2021/12/15 00:16:17;;;;;;;369.02;101.82;;;;;;;3.58;87.47;100257.97;341170;28;1970;-72
2021/12/15 00:16:27;;;;;;;370.97;105.20;;;;;;;3.59;87.78;100258.84;339753;29;1504;-72
2021/12/15 00:16:38;;;;;;;370.30;106.38;;;;;;;3.59;87.58;100262.28;339860;29;1521;-72
2021/12/15 00:16:49;;;;;;;369.60;106.00;;;;;;;3.62;87.54;100259.69;340665;29;1532;-72
2021/12/15 00:17:00;;;;;;;366.15;102.07;;;;;;;3.63;87.47;100258.81;343268;28;1821;-72
2021/12/15 00:17:10;;;;;;;366.80;103.38;;;;;;;3.64;87.63;100257.97;341174;28;1285;-72
2021/12/15 00:17:22;;;;;;;368.13;105.63;;;;;;;3.63;87.29;100264.00;341255;28;2192;-72
2021/12/15 00:17:33;;;;;;;369.73;108.00;;;;;;;3.63;87.49;100261.41;340646;29;1543;-72
2021/12/15 00:17:43;;;;;;;369.47;106.23;;;;;;;3.63;87.82;100253.66;342553;28;2074;-72
2021/12/15 00:17:54;;;;;;;367.85;103.45;;;;;;;3.62;87.73;100262.28;338563;29;1360;-72
2021/12/15 00:18:04;;;;;;;366.53;101.30;;;;;;;3.62;87.80;100262.28;339529;29;2168;-72
2021/12/15 00:18:15;;;;;;;366.83;101.93;;;;;;;3.62;87.50;100264.88;342342;28;1298;-72
2021/12/15 00:18:25;;;;;;;368.40;103.30;;;;;;;3.62;87.35;100258.84;338472;29;1225;-72
2021/12/15 00:18:36;;;;;;;369.05;103.80;;;;;;;3.60;87.51;100258.84;338556;29;2126;-72
2021/12/15 00:18:46;;;;;;;367.63;105.00;;;;;;;3.63;87.31;100261.41;337721;29;1763;-72
2021/12/15 00:18:57;;;;;;;367.37;106.40;;;;;;;3.64;87.13;100260.56;339963;29;1392;-72
2021/12/15 00:19:07;;;;;;;367.63;105.50;;;;;;;3.65;87.31;100262.28;342418;28;1200;-72
2021/12/15 00:19:18;;;;;;;368.23;104.13;;;;;;;3.65;87.34;100264.88;339886;29;1070;-72
2021/12/15 00:19:28;;;;;;;368.65;105.60;;;;;;;3.66;87.38;100263.13;341615;28;1756;-72
2021/12/15 00:19:39;;;;;;;367.50;106.00;;;;;;;3.65;87.34;100259.69;343243;28;2161;-72
2021/12/15 00:19:50;;;;;;;367.25;105.43;;;;;;;3.68;87.14;100264.00;343961;28;946;-72
2021/12/15 00:20:00;;;;;;;369.50;104.05;;;;;;;3.67;87.22;100268.31;343257;28;2263;-72
2021/12/15 00:20:12;;;;;;;368.97;104.63;;;;;;;3.65;87.29;100261.41;342494;28;1305;-72
2021/12/15 00:20:23;;;;;;;366.95;104.20;;;;;;;3.66;87.13;100264.00;341162;29;1405;-72
2021/12/15 00:20:34;;;;;;;366.77;104.00;;;;;;;3.64;87.00;100257.97;340676;28;2020;-73
2021/12/15 00:20:44;;;;;;;367.23;104.40;;;;;;;3.64;87.52;100255.38;345773;28;877;-72
2021/12/15 00:20:55;;;;;;;369.10;106.32;;;;;;;3.64;87.40;100267.44;341206;28;1342;-72
2021/12/15 00:21:05;;;;;;;367.20;105.10;;;;;;;3.62;87.10;100262.28;342202;28;1979;-73
2021/12/15 00:21:16;;;;;;;368.33;106.75;;;;;;;3.61;87.30;100260.56;341721;28;873;-73
2021/12/15 00:21:27;;;;;;;367.75;106.47;;;;;;;3.60;87.40;100265.72;342473;28;1664;-73
2021/12/15 00:21:37;;;;;;;367.98;106.35;;;;;;;3.60;87.45;100261.41;339947;29;882;-73
2021/12/15 00:21:48;;;;;;;368.20;105.87;;;;;;;3.60;87.41;100271.78;341797;28;909;-73
2021/12/15 00:21:59;;;;;;;367.15;102.57;;;;;;;3.59;87.86;100262.28;340985;28;2081;-73
2021/12/15 00:22:09;;;;;;;365.67;99.93;;;;;;;3.60;87.58;100261.41;341121;28;1504;-73
2021/12/15 00:22:20;;;;;;;365.27;99.40;;;;;;;3.58;87.50;100257.97;342214;28;2064;-73
2021/12/15 00:22:30;;;;;;;366.73;101.13;;;;;;;3.58;87.57;100263.16;339318;29;885;-73
2021/12/15 00:22:41;;;;;;;369.33;102.75;;;;;;;3.57;87.44;100256.25;341182;29;1209;-73
2021/12/15 00:22:52;;;;;;;370.27;105.07;;;;;;;3.58;87.68;100268.31;343180;28;1773;-73
2021/12/15 00:23:02;;;;;;;368.75;103.95;;;;;;;3.58;87.73;100260.56;340936;29;1281;-73
2021/12/15 00:23:13;;;;;;;368.13;104.47;;;;;;;3.58;87.73;100260.56;342353;28;1823;-72
2021/12/15 00:23:23;;;;;;;365.83;100.43;;;;;;;3.57;87.77;100261.44;342356;28;1260;-72
2021/12/15 00:23:33;;;;;;;364.48;97.80;;;;;;;3.57;87.33;100256.25;342603;28;1944;-72
2021/12/15 00:23:44;;;;;;;361.83;95.33;;;;;;;3.58;87.43;100255.38;342095;28;1655;-72
2021/12/15 00:23:54;;;;;;;361.17;94.10;;;;;;;3.59;87.51;100254.53;340965;28;1236;-72
2021/12/15 00:24:05;;;;;;;361.17;94.85;;;;;;;3.57;87.33;100256.25;340657;29;2082;-72
2021/12/15 00:24:16;;;;;;;360.98;94.28;;;;;;;3.57;87.56;100260.56;339816;28;1043;-72
2021/12/15 00:24:27;;;;;;;361.07;93.97;;;;;;;3.55;87.52;100263.16;342346;28;1488;-72
2021/12/15 00:24:37;;;;;;;360.98;93.20;;;;;;;3.57;87.47;100250.22;343805;28;942;-72
2021/12/15 00:24:47;;;;;;;359.93;93.27;;;;;;;3.57;87.57;100252.81;341065;29;912;-72
2021/12/15 00:24:58;;;;;;;360.08;94.43;;;;;;;3.57;87.70;100256.25;338528;29;1356;-72
2021/12/15 00:25:09;;;;;;;360.03;93.90;;;;;;;3.58;87.71;100257.97;341195;29;1299;-72
2021/12/15 00:25:21;;;;;;;363.48;96.03;;;;;;;3.57;87.41;100258.84;342017;28;2091;-72
2021/12/15 00:25:33;;;;;;;362.88;95.63;;;;;;;3.59;87.63;100258.84;338332;29;2119;-72
2021/12/15 00:25:44;;;;;;;361.60;95.68;;;;;;;3.57;87.50;100258.84;342498;28;2227;-72
2021/12/15 00:25:54;;;;;;;361.33;96.28;;;;;;;3.57;87.75;100260.56;342444;28;1467;-72
2021/12/15 00:26:05;;;;;;;360.80;95.57;;;;;;;3.57;87.64;100260.56;342126;28;1433;-72
2021/12/15 00:26:15;;;;;;;359.73;94.95;;;;;;;3.58;87.68;100259.69;339817;29;1910;-72
2021/12/15 00:26:26;;;;;;;358.77;94.32;;;;;;;3.58;87.38;100270.91;343746;28;1312;-72
2021/12/15 00:26:36;;;;;;;360.77;96.00;;;;;;;3.57;87.64;100256.25;344882;28;1234;-72
2021/12/15 00:26:47;;;;;;;363.67;97.70;;;;;;;3.58;87.94;100268.31;340644;29;1784;-72
2021/12/15 00:26:57;;;;;;;367.07;100.40;;;;;;;3.60;87.77;100260.56;341048;29;1190;-72
2021/12/15 00:27:08;;;;;;;365.70;100.43;;;;;;;3.59;87.83;100259.69;341125;28;1841;-72
2021/12/15 00:27:18;;;;;;;365.27;100.03;;;;;;;3.61;87.79;100260.56;341153;28;1734;-72
2021/12/15 00:27:29;;;;;;;364.88;99.20;;;;;;;3.61;87.87;100263.16;338435;29;1197;-72
2021/12/15 00:27:39;;;;;;;366.03;99.67;;;;;;;3.61;87.49;100252.78;338581;29;1275;-72
2021/12/15 00:27:49;;;;;;;366.30;100.50;;;;;;;3.60;87.25;100258.84;336795;29;1596;-72
2021/12/15 00:28:00;;;;;;;364.33;100.07;;;;;;;3.60;87.71;100261.41;338688;29;1461;-72
2021/12/15 00:28:11;;;;;;;364.17;99.93;;;;;;;3.59;87.33;100264.88;341227;29;900;-72
2021/12/15 00:28:21;;;;;;;362.60;98.43;;;;;;;3.58;87.37;100257.97;342174;28;936;-72
2021/12/15 00:28:32;;;;;;;363.03;98.53;;;;;;;3.59;87.79;100269.19;342384;28;1766;-73
2021/12/15 00:28:43;;;;;;;365.15;98.95;;;;;;;3.57;87.96;100256.25;341126;29;975;-73
2021/12/15 00:28:53;;;;;;;367.08;100.97;;;;;;;3.59;87.35;100257.13;341273;28;1476;-73
2021/12/15 00:29:05;;;;;;;367.08;101.10;;;;;;;3.58;87.78;100252.81;341093;29;1041;-73
2021/12/15 00:29:16;;;;;;;367.23;100.20;;;;;;;3.59;87.52;100262.28;343380;28;2141;-73
2021/12/15 00:29:26;;;;;;;368.27;101.23;;;;;;;3.60;87.49;100260.56;343746;28;1283;-73
2021/12/15 00:29:36;;;;;;;367.50;102.28;;;;;;;3.59;87.91;100269.19;343605;28;1560;-73
2021/12/15 00:29:47;;;;;;;365.60;102.40;;;;;;;3.59;87.54;100270.03;343180;28;1835;-73
2021/12/15 00:29:57;;;;;;;364.65;100.82;;;;;;;3.58;87.59;100263.16;342709;28;840;-73
2021/12/15 00:30:09;;;;;;;363.67;98.77;;;;;;;3.59;87.49;100261.44;342366;28;2275;-73
2021/12/15 00:30:19;;;;;;;366.24;99.64;;;;;;;3.58;87.70;100263.16;342491;28;1011;-73
2021/12/15 00:30:30;;;;;;;369.90;102.83;;;;;;;3.58;87.55;100267.47;338689;29;1255;-73
2021/12/15 00:30:40;;;;;;;370.98;105.32;;;;;;;3.58;87.65;100257.97;339458;29;1047;-73
2021/12/15 00:30:51;;;;;;;371.20;106.60;;;;;;;3.58;87.46;100263.16;340858;29;1500;-73
2021/12/15 00:31:01;;;;;;;368.13;103.72;;;;;;;3.59;87.70;100259.69;341182;29;2111;-73
2021/12/15 00:31:11;;;;;;;366.70;102.00;;;;;;;3.58;87.52;100260.56;339871;29;877;-73
2021/12/15 00:31:22;;;;;;;366.73;101.35;;;;;;;3.59;87.75;100270.03;339751;29;1792;-73
2021/12/15 00:31:34;;;;;;;366.77;101.60;;;;;;;3.58;87.66;100268.31;341714;28;1998;-73
2021/12/15 00:31:46;;;;;;;368.38;104.03;;;;;;;3.59;87.71;100264.88;341056;29;2058;-73
2021/12/15 00:31:58;;;;;;;369.55;107.05;;;;;;;3.60;87.82;100264.00;341042;29;1428;-73
2021/12/15 00:32:08;;;;;;;369.73;106.78;;;;;;;3.60;87.60;100270.91;342391;28;1354;-73
2021/12/15 00:32:18;;;;;;;368.23;106.40;;;;;;;3.61;88.03;100268.31;342441;28;825;-73
2021/12/15 00:32:29;;;;;;;367.30;104.60;;;;;;;3.60;87.66;100258.84;342456;28;1989;-73
2021/12/15 00:32:39;;;;;;;365.38;102.30;;;;;;;3.62;87.60;100264.88;342915;28;881;-73
2021/12/15 00:32:50;;;;;;;365.10;99.87;;;;;;;3.62;87.58;100270.03;343032;28;1428;-73
2021/12/15 00:33:00;;;;;;;366.45;98.88;;;;;;;3.62;87.41;100264.88;342041;28;1710;-73
2021/12/15 00:33:11;;;;;;;367.10;101.03;;;;;;;3.60;87.52;100266.59;339945;29;975;-73
2021/12/15 00:33:21;;;;;;;364.73;102.38;;;;;;;3.61;87.24;100265.72;341148;28;2120;-73
2021/12/15 00:33:32;;;;;;;364.87;103.80;;;;;;;3.59;87.65;100275.22;339570;29;2068;-73
2021/12/15 00:33:43;;;;;;;365.50;103.60;;;;;;;3.60;87.14;100271.78;339839;28;1916;-73
2021/12/15 00:33:54;;;;;;;367.58;103.85;;;;;;;3.59;87.60;100270.03;343781;28;984;-73
2021/12/15 00:34:07;;;;;;;366.77;103.30;;;;;;;3.61;87.63;100273.50;341895;28;1382;-73
2021/12/15 00:34:17;;;;;;;366.73;103.07;;;;;;;3.60;87.18;100271.78;339107;29;1927;-73
2021/12/15 00:34:28;;;;;;;366.47;104.07;;;;;;;3.61;87.25;100273.50;342596;28;981;-73
2021/12/15 00:34:39;;;;;;;366.13;102.18;;;;;;;3.62;87.66;100270.03;342342;28;1533;-73
2021/12/15 00:34:51;;;;;;;366.50;98.43;;;;;;;3.62;87.27;100270.03;341514;28;1998;-73
2021/12/15 00:35:02;;;;;;;366.10;96.88;;;;;;;3.61;87.31;100263.16;341862;28;1805;-73
2021/12/15 00:35:12;;;;;;;367.40;98.72;;;;;;;3.60;87.59;100271.78;342562;28;918;-73
2021/12/15 00:35:23;;;;;;;367.03;102.73;;;;;;;3.60;87.29;100271.78;342604;28;1338;-73
2021/12/15 00:35:35;;;;;;;367.23;103.28;;;;;;;3.60;87.26;100266.59;342379;28;1537;-73
2021/12/15 00:35:46;;;;;;;369.45;104.10;;;;;;;3.62;86.88;100274.34;341020;28;2073;-73
2021/12/15 00:35:56;;;;;;;368.40;102.57;;;;;;;3.62;87.41;100275.22;341243;29;900;-73
2021/12/15 00:36:07;;;;;;;367.42;99.53;;;;;;;3.63;87.53;100271.78;341147;29;1745;-73
2021/12/15 00:36:18;;;;;;;366.43;98.13;;;;;;;3.64;87.21;100273.50;339626;29;1777;-73
2021/12/15 00:36:28;;;;;;;367.17;99.15;;;;;;;3.62;87.47;100270.03;339876;29;896;-73
2021/12/15 00:36:43;;;;;;;368.02;102.50;;;;;;;3.62;87.56;100264.88;339859;29;2085;-73
2021/12/15 00:36:54;;;;;;;368.45;103.32;;;;;;;3.62;87.21;100269.19;341093;28;1766;-72
2021/12/15 00:37:05;;;;;;;366.27;101.88;;;;;;;3.60;87.40;100274.38;342366;28;1009;-72
2021/12/15 00:37:15;;;;;;;366.15;101.97;;;;;;;3.61;87.78;100268.31;341144;29;1718;-72
2021/12/15 00:37:26;;;;;;;366.27;101.33;;;;;;;3.61;87.49;100272.63;340811;29;2125;-72
2021/12/15 00:37:36;;;;;;;367.98;101.97;;;;;;;3.61;87.48;100276.09;339914;29;1295;-73
2021/12/15 00:37:48;;;;;;;367.05;100.32;;;;;;;3.60;87.35;100278.69;340800;29;1348;-73
2021/12/15 00:37:58;;;;;;;366.55;99.53;;;;;;;3.60;87.19;100271.78;343846;28;1181;-73
2021/12/15 00:38:09;;;;;;;365.43;98.97;;;;;;;3.60;87.38;100271.78;344998;28;1213;-72
2021/12/15 00:38:19;;;;;;;363.48;99.80;;;;;;;3.63;87.25;100265.72;342411;28;2109;-72
2021/12/15 00:38:29;;;;;;;365.65;100.75;;;;;;;3.62;87.42;100277.81;340929;29;1768;-72
2021/12/15 00:38:40;;;;;;;366.50;101.70;;;;;;;3.63;87.65;100276.94;342486;28;810;-72
2021/12/15 00:38:51;;;;;;;368.80;102.03;;;;;;;3.62;87.53;100270.03;342368;28;1903;-72
2021/12/15 00:39:03;;;;;;;367.30;100.45;;;;;;;3.62;87.26;100270.03;342381;28;1768;-72
2021/12/15 00:39:17;;;;;;;367.98;100.70;;;;;;;3.61;87.16;100265.72;341098;29;1545;-72
2021/12/15 00:39:29;;;;;;;366.20;99.90;;;;;;;3.59;87.25;100272.63;339855;29;948;-72
2021/12/15 00:39:39;;;;;;;364.45;98.45;;;;;;;3.58;87.39;100268.31;341154;28;1035;-72
2021/12/15 00:39:49;;;;;;;365.57;99.93;;;;;;;3.58;87.23;100268.31;341128;28;1317;-72
2021/12/15 00:40:00;;;;;;;366.08;101.03;;;;;;;3.57;87.52;100266.59;343595;28;1809;-72
2021/12/15 00:40:12;;;;;;;365.80;100.50;;;;;;;3.56;86.97;100264.00;341105;29;1348;-72
2021/12/15 00:40:23;;;;;;;363.17;96.57;;;;;;;3.54;87.45;100271.78;343222;28;2044;-72
2021/12/15 00:40:34;;;;;;;363.60;98.45;;;;;;;3.54;87.56;100271.78;345819;28;1398;-72
2021/12/15 00:40:44;;;;;;;364.93;100.27;;;;;;;3.55;87.14;100270.06;341025;29;2004;-72
2021/12/15 00:40:55;;;;;;;364.67;100.40;;;;;;;3.54;87.28;100276.97;341291;29;1331;-72
2021/12/15 00:41:05;;;;;;;364.70;99.33;;;;;;;3.52;87.43;100263.16;341856;28;2172;-72
2021/12/15 00:41:16;;;;;;;362.75;98.65;;;;;;;3.54;87.53;100266.59;343679;28;1849;-72
2021/12/15 00:41:26;;;;;;;364.67;101.00;;;;;;;3.55;87.34;100273.50;342559;28;798;-72
2021/12/15 00:41:36;;;;;;;364.65;101.03;;;;;;;3.56;87.50;100271.78;339805;29;2085;-72
2021/12/15 00:41:47;;;;;;;365.70;102.53;;;;;;;3.57;87.23;100271.78;339734;29;2147;-72
2021/12/15 00:41:57;;;;;;;365.95;101.82;;;;;;;3.57;87.13;100276.09;339721;29;1127;-72
2021/12/15 00:42:09;;;;;;;365.58;100.32;;;;;;;3.58;87.51;100270.91;342086;28;2126;-72
2021/12/15 00:42:19;;;;;;;365.60;100.13;;;;;;;3.57;86.96;100271.78;342151;28;1255;-72
2021/12/15 00:42:30;;;;;;;364.75;99.93;;;;;;;3.57;87.15;100276.09;342350;28;1354;-72
2021/12/15 00:42:40;;;;;;;364.87;99.37;;;;;;;3.58;87.47;100273.50;338451;29;1372;-72
2021/12/15 00:42:51;;;;;;;366.73;101.65;;;;;;;3.59;87.30;100274.38;338311;29;2313;-72
2021/12/15 00:43:02;;;;;;;366.10;100.87;;;;;;;3.59;87.39;100275.22;341033;29;1149;-72
2021/12/15 00:43:12;;;;;;;365.13;100.05;;;;;;;3.61;87.30;100272.63;341039;29;906;-72
2021/12/15 00:43:23;;;;;;;362.73;97.90;;;;;;;3.59;87.18;100264.88;342218;28;1334;-72
2021/12/15 00:43:34;;;;;;;363.05;97.75;;;;;;;3.61;86.95;100273.50;339987;29;2862;-72
2021/12/15 00:43:44;;;;;;;362.90;98.72;;;;;;;3.61;87.33;100272.63;341382;28;1612;-72
2021/12/15 00:43:55;;;;;;;364.37;98.57;;;;;;;3.61;87.24;100273.50;342596;28;877;-72
2021/12/15 00:44:05;;;;;;;364.15;100.10;;;;;;;3.60;87.33;100276.09;341775;28;1246;-72
2021/12/15 00:44:16;;;;;;;364.43;98.97;;;;;;;3.60;87.45;100276.94;342143;28;1513;-72
2021/12/15 00:44:26;;;;;;;364.40;99.90;;;;;;;3.60;87.26;100261.41;339752;29;1199;-72
2021/12/15 00:44:37;;;;;;;366.13;101.30;;;;;;;3.62;87.12;100274.34;342871;28;1370;-72
2021/12/15 00:44:48;;;;;;;365.65;101.50;;;;;;;3.60;87.46;100261.41;340483;29;1825;-72
2021/12/15 00:44:58;;;;;;;365.63;100.73;;;;;;;3.63;87.32;100270.91;335986;29;1283;-72
2021/12/15 00:45:09;;;;;;;364.27;98.30;;;;;;;3.62;87.20;100269.19;336964;29;1362;-72
2021/12/15 00:45:19;;;;;;;363.40;96.37;;;;;;;3.63;87.22;100271.78;337805;29;1624;-72
2021/12/15 00:45:30;;;;;;;362.33;95.72;;;;;;;3.63;86.96;100271.78;339721;29;2038;-72
2021/12/15 00:45:40;;;;;;;361.93;95.10;;;;;;;3.64;87.19;100268.31;343069;28;941;-72
2021/12/15 00:45:50;;;;;;;363.52;96.90;;;;;;;3.63;87.42;100269.19;342317;28;1868;-72
2021/12/15 00:46:01;;;;;;;363.60;97.50;;;;;;;3.64;86.86;100272.63;342163;28;2133;-72
2021/12/15 00:46:11;;;;;;;365.27;100.10;;;;;;;3.63;87.26;100269.19;341091;29;1508;-72
2021/12/15 00:46:22;;;;;;;363.70;98.83;;;;;;;3.61;87.26;100273.50;341104;28;1669;-72
2021/12/15 00:46:32;;;;;;;363.45;97.85;;;;;;;3.64;87.28;100277.81;340918;29;1679;-72
2021/12/15 00:46:43;;;;;;;361.87;96.10;;;;;;;3.62;87.60;100264.88;341105;29;1228;-72
2021/12/15 00:46:53;;;;;;;364.10;97.57;;;;;;;3.62;87.33;100270.03;340974;29;2063;-72
2021/12/15 00:47:04;;;;;;;363.08;97.45;;;;;;;3.62;87.33;100270.03;340910;28;2004;-72
2021/12/15 00:47:14;;;;;;;364.30;97.97;;;;;;;3.62;87.36;100275.22;345009;28;1875;-72
2021/12/15 00:47:25;;;;;;;361.33;96.07;;;;;;;3.62;87.24;100264.88;342642;28;923;-72
2021/12/15 00:47:35;;;;;;;362.83;96.82;;;;;;;3.62;87.17;100270.03;343697;28;2019;-72
2021/12/15 00:47:46;;;;;;;362.67;97.53;;;;;;;3.63;86.92;100268.31;340773;28;2231;-72
2021/12/15 00:47:56;;;;;;;364.58;99.25;;;;;;;3.64;86.87;100264.88;341274;29;954;-72
2021/12/15 00:48:07;;;;;;;363.23;96.70;;;;;;;3.65;87.47;100269.19;340980;28;2005;-72
2021/12/15 00:48:18;;;;;;;365.42;98.20;;;;;;;3.64;87.30;100268.31;337144;29;1421;-72
2021/12/15 00:48:28;;;;;;;365.92;100.15;;;;;;;3.63;87.56;100265.72;339832;28;1189;-72
2021/12/15 00:48:39;;;;;;;366.23;101.72;;;;;;;3.63;87.37;100269.19;341483;28;1237;-72
2021/12/15 00:48:50;;;;;;;364.70;101.53;;;;;;;3.61;87.37;100276.09;341558;28;1651;-72
2021/12/15 00:49:00;;;;;;;363.75;101.63;;;;;;;3.63;87.18;100271.78;341042;29;931;-72
2021/12/15 00:49:11;;;;;;;364.33;102.32;;;;;;;3.60;87.15;100270.91;343793;28;1615;-72
2021/12/15 00:49:22;;;;;;;366.83;102.77;;;;;;;3.59;87.46;100264.88;342775;28;1804;-72
2021/12/15 00:49:32;;;;;;;366.85;100.72;;;;;;;3.60;87.31;100276.94;341159;29;2113;-72
2021/12/15 00:49:42;;;;;;;366.67;100.07;;;;;;;3.61;87.12;100275.22;339858;29;1695;-72
2021/12/15 00:49:53;;;;;;;365.27;99.87;;;;;;;3.62;87.31;100285.56;341152;28;1865;-72
2021/12/15 00:50:06;;;;;;;364.00;100.20;;;;;;;3.60;87.23;100276.09;340782;28;1991;-72
2021/12/15 00:50:19;;;;;;;363.23;98.80;;;;;;;3.58;87.35;100270.91;340760;28;2068;-72
2021/12/15 00:50:32;;;;;;;365.10;99.72;;;;;;;3.58;87.31;100273.50;341173;28;1996;-72